createdAt,value
2022-09-09T00:00:26.718Z,10.85
2022-09-09T00:03:13.858Z,10.63
2022-09-09T00:06:08.713Z,13.27
2022-09-09T00:08:50.688Z,11.30
2022-09-09T00:11:30.744Z,12.52
2022-09-09T00:14:04.482Z,11.88
2022-09-09T00:16:37.228Z,11.77
2022-09-09T00:19:18.999Z,11.35
2022-09-09T00:22:15.187Z,13.93
2022-09-09T00:24:44.338Z,12.07
2022-09-09T00:27:39.377Z,11.38
2022-09-09T00:30:27.029Z,11.40
2022-09-09T00:33:02.783Z,10.73
2022-09-09T00:35:37.878Z,10.60
2022-09-09T00:38:15.050Z,10.82
2022-09-09T00:40:57.296Z,13.60
2022-09-09T00:43:31.383Z,12.13
2022-09-09T00:46:21.131Z,10.10
2022-09-09T00:49:15.004Z,11.32
2022-09-09T00:52:09.249Z,11.48
2022-09-09T00:54:46.924Z,12.73
2022-09-09T00:57:19.256Z,12.40
2022-09-09T00:59:53.500Z,11.40
2022-09-09T01:02:45.380Z,14.65
2022-09-09T01:05:23.769Z,12.13
2022-09-09T01:07:55.049Z,13.60
2022-09-09T01:10:38.697Z,12.73
2022-09-09T01:13:15.949Z,11.93
2022-09-09T01:15:45.641Z,11.65
2022-09-09T01:18:18.305Z,13.43
2022-09-09T01:21:02.461Z,14.70
2022-09-09T01:23:29.419Z,12.38
2022-09-09T01:26:22.237Z,13.88
2022-09-09T01:28:53.763Z,12.95
2022-09-09T01:31:33.988Z,12.75
2022-09-09T01:34:01.056Z,15.43
2022-09-09T01:36:47.484Z,11.93
2022-09-09T01:39:15.246Z,13.60
2022-09-09T01:41:44.089Z,14.88
2022-09-09T01:44:14.187Z,12.77
2022-09-09T01:46:44.787Z,13.88
2022-09-09T01:49:20.426Z,15.55
2022-09-09T01:51:51.319Z,17.67
2022-09-09T01:54:21.391Z,11.27
2022-09-09T01:57:09.717Z,13.20
2022-09-09T01:59:53.417Z,14.37
2022-09-09T02:02:31.925Z,14.63
2022-09-09T02:05:22.747Z,14.00
2022-09-09T02:07:54.278Z,13.30
2022-09-09T02:10:38.869Z,14.02
2022-09-09T02:13:26.239Z,12.88
2022-09-09T02:16:09.399Z,14.23
2022-09-09T02:18:38.828Z,12.32
2022-09-09T02:21:08.016Z,12.57
2022-09-09T02:23:37.159Z,16.15
2022-09-09T02:26:11.476Z,14.43
2022-09-09T02:28:40.570Z,13.15
2022-09-09T02:31:07.920Z,15.02
2022-09-09T02:33:46.902Z,13.32
2022-09-09T02:36:17.458Z,14.77
2022-09-09T02:38:51.833Z,14.52
2022-09-09T02:41:36.262Z,16.45
2022-09-09T02:44:07.211Z,14.93
2022-09-09T02:47:05.260Z,17.73
2022-09-09T02:49:51.153Z,14.20
2022-09-09T02:52:27.821Z,13.20
2022-09-09T02:55:05.602Z,15.00
2022-09-09T02:57:34.304Z,12.57
2022-09-09T03:00:02.836Z,14.90
2022-09-09T03:02:31.878Z,14.70
2022-09-09T03:05:04.638Z,14.27
2022-09-09T03:07:31.717Z,14.38
2022-09-09T03:09:59.897Z,12.68
2022-09-09T03:12:28.430Z,17.65
2022-09-09T03:14:55.498Z,15.88
2022-09-09T03:17:24.638Z,15.70
2022-09-09T03:19:56.202Z,16.05
2022-09-09T03:22:23.348Z,14.77
2022-09-09T03:24:50.471Z,16.65
2022-09-09T03:27:18.612Z,17.63
2022-09-09T03:29:46.285Z,17.95
2022-09-09T03:32:20.122Z,14.23
2022-09-09T03:34:48.600Z,16.05
2022-09-09T03:37:16.628Z,14.75
2022-09-09T03:39:43.764Z,17.85
2022-09-09T03:42:19.846Z,16.20
2022-09-09T03:44:51.548Z,15.30
2022-09-09T03:47:22.974Z,15.52
2022-09-09T03:49:52.717Z,15.18
2022-09-09T03:52:23.530Z,16.02
2022-09-09T03:54:52.557Z,16.20
2022-09-09T03:57:20.527Z,16.70
2022-09-09T03:59:47.717Z,15.05
2022-09-09T04:02:15.333Z,17.17
2022-09-09T04:04:42.585Z,15.70
2022-09-09T04:07:09.953Z,16.10
2022-09-09T04:09:37.017Z,14.15
2022-09-09T04:12:04.127Z,23.30
2022-09-09T04:14:31.717Z,17.63
2022-09-09T04:17:00.687Z,17.70
2022-09-09T04:19:27.676Z,16.25
2022-09-09T04:21:54.818Z,19.90
2022-09-09T04:24:23.359Z,20.50
2022-09-09T04:26:51.250Z,15.27
2022-09-09T04:29:18.477Z,18.63
2022-09-09T04:31:45.839Z,20.40
2022-09-09T04:34:13.761Z,21.10
2022-09-09T04:36:41.678Z,25.58
2022-09-09T04:39:09.677Z,14.60
2022-09-09T04:41:36.747Z,20.20
2022-09-09T04:44:04.878Z,17.05
2022-09-09T04:46:35.478Z,17.98
2022-09-09T04:49:02.666Z,17.58
2022-09-09T04:51:32.372Z,20.37
2022-09-09T04:53:59.723Z,20.55
2022-09-09T04:56:28.134Z,18.55
2022-09-09T04:58:59.582Z,20.98
2022-09-09T05:01:40.589Z,19.42
2022-09-09T05:04:08.021Z,22.80
2022-09-09T05:06:35.258Z,21.90
2022-09-09T05:09:02.881Z,19.25
2022-09-09T05:11:33.806Z,21.38
2022-09-09T05:14:06.719Z,19.80
2022-09-09T05:16:34.357Z,22.42
2022-09-09T05:19:01.532Z,18.33
2022-09-09T05:21:37.049Z,20.38
2022-09-09T05:24:04.279Z,21.98
2022-09-09T05:26:32.805Z,26.67
2022-09-09T05:29:01.645Z,22.88
2022-09-09T05:31:32.071Z,20.60
2022-09-09T05:34:02.578Z,22.48
2022-09-09T05:36:29.816Z,22.25
2022-09-09T05:38:57.588Z,22.55
2022-09-09T05:41:26.944Z,26.05
2022-09-09T05:43:56.217Z,22.00
2022-09-09T05:46:26.338Z,24.65
2022-09-09T05:48:55.222Z,27.90
2022-09-09T05:51:31.353Z,26.15
2022-09-09T05:54:02.247Z,24.38
2022-09-09T05:56:33.670Z,26.25
2022-09-09T05:59:02.118Z,30.95
2022-09-09T06:01:32.129Z,28.50
2022-09-09T06:04:00.115Z,25.42
2022-09-09T06:06:38.067Z,29.80
2022-09-09T06:09:11.662Z,29.35
2022-09-09T06:11:42.382Z,32.72
2022-09-09T06:14:10.445Z,36.42
2022-09-09T06:16:44.325Z,33.80
2022-09-09T06:19:19.355Z,34.78
2022-09-09T06:21:46.401Z,32.97
2022-09-09T06:24:15.081Z,32.50
2022-09-09T06:26:42.937Z,32.70
2022-09-09T06:29:13.637Z,36.80
2022-09-09T06:31:42.683Z,38.20
2022-09-09T06:34:16.410Z,37.05
2022-09-09T06:36:47.650Z,39.35
2022-09-09T06:39:16.607Z,39.88
2022-09-09T06:41:44.205Z,37.67
2022-09-09T06:44:40.267Z,33.35
2022-09-09T06:47:12.322Z,38.83
2022-09-09T06:49:41.019Z,32.87
2022-09-09T06:52:10.900Z,36.22
2022-09-09T06:54:38.863Z,38.00
2022-09-09T06:57:33.787Z,39.42
2022-09-09T06:59:56.829Z,38.92
2022-09-09T07:02:24.949Z,38.67
2022-09-09T07:04:52.842Z,38.40
2022-09-09T07:07:20.147Z,43.38
2022-09-09T07:09:47.448Z,38.90
2022-09-09T07:12:14.922Z,41.08
2022-09-09T07:14:49.402Z,42.22
2022-09-09T07:17:16.557Z,42.53
2022-09-09T07:19:44.411Z,42.90
2022-09-09T07:22:11.920Z,38.03
2022-09-09T07:24:39.781Z,36.85
2022-09-09T07:27:07.582Z,41.45
2022-09-09T07:29:36.329Z,36.50
2022-09-09T07:32:05.490Z,36.08
2022-09-09T07:34:36.542Z,33.17
2022-09-09T07:37:04.016Z,36.22
2022-09-09T07:39:32.694Z,38.50
2022-09-09T07:42:00.086Z,33.72
2022-09-09T07:44:28.214Z,31.13
2022-09-09T07:47:05.304Z,32.85
2022-09-09T07:49:40.036Z,30.55
2022-09-09T07:52:08.955Z,36.67
2022-09-09T07:54:38.389Z,28.60
2022-09-09T07:57:06.979Z,29.02
2022-09-09T07:59:36.368Z,31.23
2022-09-09T08:02:04.296Z,32.45
2022-09-09T08:04:33.951Z,27.63
2022-09-09T08:07:02.462Z,32.63
2022-09-09T08:09:34.820Z,29.60
2022-09-09T08:12:14.299Z,34.60
2022-09-09T08:14:41.770Z,28.70
2022-09-09T08:17:09.223Z,30.38
2022-09-09T08:19:37.123Z,26.60
2022-09-09T08:22:09.722Z,28.50
2022-09-09T08:24:40.467Z,27.33
2022-09-09T08:27:08.297Z,25.65
2022-09-09T08:29:35.755Z,24.90
2022-09-09T08:32:03.429Z,23.98
2022-09-09T08:34:32.486Z,22.05
2022-09-09T08:37:03.849Z,24.23
2022-09-09T08:39:38.542Z,27.13
2022-09-09T08:42:27.737Z,23.05
2022-09-09T08:45:17.387Z,23.58
2022-09-09T08:47:53.746Z,19.27
2022-09-09T08:50:33.700Z,18.20
2022-09-09T08:53:09.928Z,18.45
2022-09-09T08:55:57.277Z,17.95
2022-09-09T08:58:36.482Z,16.42
2022-09-09T09:01:18.617Z,15.32
2022-09-09T09:04:16.400Z,19.33
2022-09-09T09:07:14.741Z,19.10
2022-09-09T09:10:30.473Z,19.02
2022-09-09T09:12:59.402Z,20.15
2022-09-09T09:15:32.748Z,19.55
2022-09-09T09:18:00.661Z,20.13
2022-09-09T09:21:13.168Z,19.95
2022-09-09T09:23:56.465Z,16.75
2022-09-09T09:26:27.719Z,20.60
2022-09-09T09:28:58.441Z,17.08
2022-09-09T09:31:28.132Z,16.77
2022-09-09T09:33:57.410Z,19.13
2022-09-09T09:36:42.566Z,17.17
2022-09-09T09:42:21.676Z,20.50
2022-09-09T09:44:51.251Z,16.30
2022-09-09T09:47:23.106Z,17.75
2022-09-09T09:50:06.214Z,17.30
2022-09-09T09:52:38.132Z,19.17
2022-09-09T09:55:15.149Z,18.90
2022-09-09T09:57:45.894Z,17.40
2022-09-09T10:00:18.617Z,18.58
2022-09-09T10:02:53.787Z,16.52
2022-09-09T10:05:29.080Z,17.15
2022-09-09T10:08:20.332Z,16.95
2022-09-09T10:11:02.532Z,15.48
2022-09-09T10:13:44.729Z,17.13
2022-09-09T10:16:40.086Z,15.27
2022-09-09T10:19:14.188Z,14.68
2022-09-09T10:22:07.876Z,16.17
2022-09-09T10:24:50.410Z,16.20
2022-09-09T10:27:38.241Z,14.25
2022-09-09T10:30:20.079Z,14.88
2022-09-09T10:32:53.368Z,14.50
2022-09-09T10:35:29.146Z,15.60
2022-09-09T10:38:21.778Z,13.88
2022-09-09T10:40:56.599Z,16.00
2022-09-09T10:43:42.108Z,13.30
2022-09-09T10:46:38.083Z,13.43
2022-09-09T10:49:39.150Z,14.20
2022-09-09T10:52:36.877Z,10.93
2022-09-09T10:55:15.028Z,12.45
2022-09-09T10:57:51.196Z,12.77
2022-09-09T11:00:25.642Z,11.88
2022-09-09T11:03:19.895Z,9.15
2022-09-09T11:06:25.894Z,8.43
2022-09-09T11:08:57.061Z,10.18
2022-09-09T11:11:40.414Z,10.05
2022-09-09T11:14:21.299Z,10.35
2022-09-09T11:16:55.362Z,13.18
2022-09-09T11:19:35.409Z,12.40
2022-09-09T11:22:26.567Z,10.80
2022-09-09T11:25:01.495Z,9.27
2022-09-09T11:27:40.536Z,11.20
2022-09-09T11:30:44.101Z,12.95
2022-09-09T11:35:54.963Z,12.27
2022-09-09T11:38:22.349Z,9.57
2022-09-09T11:41:00.747Z,8.63
2022-09-09T11:43:54.192Z,11.68
2022-09-09T11:46:34.909Z,10.18
2022-09-09T11:49:04.980Z,11.02
2022-09-09T11:51:33.990Z,11.30
2022-09-09T11:54:24.621Z,10.38
2022-09-09T11:56:51.786Z,12.05
2022-09-09T11:59:30.367Z,12.73
2022-09-09T12:02:20.110Z,11.70
2022-09-09T12:05:10.061Z,12.85
2022-09-09T12:07:55.060Z,11.80
2022-09-09T12:10:27.908Z,14.55
2022-09-09T12:12:55.094Z,14.52
2022-09-09T12:15:30.374Z,14.15
2022-09-09T12:18:03.804Z,17.80
2022-09-09T12:20:32.416Z,14.13
2022-09-09T12:23:20.431Z,16.55
2022-09-09T12:26:05.078Z,14.45
2022-09-09T12:29:00.923Z,20.55
2022-09-09T12:31:48.611Z,18.70
2022-09-09T12:34:33.566Z,19.95
2022-09-09T12:37:07.540Z,19.48
2022-09-09T12:39:39.783Z,19.45
2022-09-09T12:42:18.248Z,22.50
2022-09-09T12:45:04.367Z,21.13
2022-09-09T12:47:41.667Z,22.67
2022-09-09T12:50:27.004Z,22.05
2022-09-09T12:53:00.829Z,20.13
2022-09-09T12:55:34.844Z,17.33
2022-09-09T12:58:07.277Z,19.15
2022-09-09T13:00:35.819Z,16.77
2022-09-09T13:03:18.500Z,19.63
2022-09-09T13:05:47.971Z,19.80
2022-09-09T13:08:19.670Z,20.77
2022-09-09T13:11:02.902Z,18.02
2022-09-09T13:13:39.898Z,18.80
2022-09-09T13:16:19.405Z,18.95
2022-09-09T13:18:47.056Z,23.77
2022-09-09T13:21:15.451Z,21.30
2022-09-09T13:23:42.865Z,19.05
2022-09-09T13:26:27.468Z,21.23
2022-09-09T13:28:55.952Z,22.30
2022-09-09T13:31:37.264Z,23.40
2022-09-09T13:34:36.850Z,21.85
2022-09-09T13:37:07.188Z,21.55
2022-09-09T13:42:08.291Z,20.67
2022-09-09T13:44:40.470Z,19.55
2022-09-09T13:47:23.891Z,22.52
2022-09-09T13:49:50.987Z,21.10
2022-09-09T13:52:20.069Z,23.05
2022-09-09T13:54:52.277Z,26.67
2022-09-09T13:57:21.300Z,31.17
2022-09-09T14:00:05.445Z,28.98
2022-09-09T14:02:32.791Z,29.95
2022-09-09T14:04:59.914Z,27.60
2022-09-09T14:07:28.022Z,23.25
2022-09-09T14:09:55.038Z,27.08
2022-09-09T14:12:22.186Z,32.38
2022-09-09T14:14:49.230Z,32.08
2022-09-09T14:17:16.370Z,29.23
2022-09-09T14:19:43.936Z,33.03
2022-09-09T14:22:11.074Z,30.80
2022-09-09T14:24:38.280Z,36.83
2022-09-09T14:27:05.309Z,36.50
2022-09-09T14:29:32.412Z,34.65
2022-09-09T14:32:02.065Z,35.05
2022-09-09T14:34:29.158Z,38.83
2022-09-09T14:36:56.993Z,38.95
2022-09-09T14:39:23.951Z,41.33
2022-09-09T14:41:51.167Z,44.13
2022-09-09T14:44:18.331Z,36.92
2022-09-09T14:46:45.667Z,39.67
2022-09-09T14:49:13.981Z,40.53
2022-09-09T14:51:41.144Z,35.72
2022-09-09T14:54:08.119Z,43.00
2022-09-09T14:56:35.934Z,44.00
2022-09-09T14:59:03.701Z,41.28
2022-09-09T15:01:32.107Z,41.95
2022-09-09T15:04:01.686Z,42.78
2022-09-09T15:06:32.828Z,42.58
2022-09-09T15:09:01.507Z,38.33
2022-09-09T15:11:31.979Z,44.03
2022-09-09T15:13:59.787Z,45.03
2022-09-09T15:16:29.228Z,44.70
2022-09-09T15:18:59.490Z,40.57
2022-09-09T15:23:55.113Z,46.95
2022-09-09T15:26:22.515Z,47.85
2022-09-09T15:28:50.935Z,47.80
2022-09-09T15:31:22.156Z,45.28
2022-09-09T15:33:53.569Z,51.60
2022-09-09T15:36:26.010Z,47.60
2022-09-09T15:38:54.154Z,45.80
2022-09-09T15:41:23.160Z,42.17
2022-09-09T15:43:53.011Z,41.50
2022-09-09T15:46:33.700Z,42.92
2022-09-09T15:49:11.980Z,39.72
2022-09-09T15:51:44.004Z,41.78
2022-09-09T15:54:19.679Z,38.88
2022-09-09T15:56:49.949Z,42.00
2022-09-09T16:01:45.312Z,36.97
2022-09-09T16:04:12.880Z,40.70
2022-09-09T16:06:40.388Z,35.03
2022-09-09T16:09:08.973Z,35.25
2022-09-09T16:11:38.361Z,35.35
2022-09-09T16:14:07.761Z,40.15
2022-09-09T16:16:36.458Z,30.77
2022-09-09T16:19:08.976Z,33.47
2022-09-09T16:21:39.304Z,33.33
2022-09-09T16:26:37.693Z,32.08
2022-09-09T16:29:05.572Z,25.60
2022-09-09T16:31:35.879Z,23.38
2022-09-09T16:36:33.519Z,27.75
2022-09-09T16:39:03.263Z,28.58
2022-09-09T16:41:31.295Z,32.53
2022-09-09T16:44:06.632Z,38.33
2022-09-09T16:46:37.522Z,39.53
2022-09-09T16:49:06.897Z,41.42
2022-09-09T16:51:37.539Z,36.22
2022-09-09T16:54:09.801Z,35.80
2022-09-09T16:56:42.381Z,33.70
2022-09-09T16:59:17.951Z,36.05
2022-09-09T17:01:47.137Z,29.20
2022-09-09T17:04:21.941Z,24.50
2022-09-09T17:06:50.982Z,22.17
2022-09-09T17:09:19.292Z,30.50
2022-09-09T17:11:46.892Z,20.40
2022-09-09T17:14:17.929Z,16.92
2022-09-09T17:16:45.658Z,13.32
2022-09-09T17:19:13.813Z,16.13
2022-09-09T17:21:54.950Z,17.40
2022-09-09T17:24:30.313Z,18.08
2022-09-09T17:26:58.741Z,20.00
2022-09-09T17:29:26.341Z,20.13
2022-09-09T17:31:53.702Z,19.23
2022-09-09T17:34:20.953Z,19.33
2022-09-09T17:36:48.179Z,19.13
2022-09-09T17:39:15.327Z,22.30
2022-09-09T17:41:42.843Z,28.08
2022-09-09T17:44:10.953Z,28.38
2022-09-09T17:46:41.768Z,32.38
2022-09-09T17:49:11.767Z,32.75
2022-09-09T17:51:39.347Z,30.75
2022-09-09T17:54:10.248Z,34.78
2022-09-09T17:56:38.813Z,37.30
2022-09-09T17:59:08.388Z,37.08
2022-09-09T18:01:39.700Z,37.65
2022-09-09T18:04:09.171Z,34.72
2022-09-09T18:06:41.836Z,40.35
2022-09-09T18:09:13.450Z,42.53
2022-09-09T18:11:47.020Z,43.85
2022-09-09T18:14:20.574Z,44.65
2022-09-09T18:16:49.143Z,36.97
2022-09-09T18:19:19.230Z,41.30
2022-09-09T18:21:47.248Z,40.97
2022-09-09T18:24:16.281Z,36.70
2022-09-09T18:26:44.487Z,38.50
2022-09-09T18:29:14.557Z,38.55
2022-09-09T18:31:42.817Z,39.47
2022-09-09T18:34:13.100Z,45.38
2022-09-09T18:36:49.605Z,41.58
2022-09-09T18:39:18.928Z,50.25
2022-09-09T18:41:52.390Z,49.78
2022-09-09T18:44:22.513Z,41.33
2022-09-09T18:46:50.689Z,46.75
2022-09-09T18:49:19.143Z,44.80
2022-09-09T18:51:47.337Z,42.10
2022-09-09T18:54:21.039Z,47.75
2022-09-09T18:56:49.174Z,43.63
2022-09-09T18:59:20.099Z,41.53
2022-09-09T19:01:48.764Z,40.33
2022-09-09T19:04:16.914Z,44.90
2022-09-09T19:06:47.702Z,49.03
2022-09-09T19:09:17.116Z,54.88
2022-09-09T19:11:44.722Z,48.20
2022-09-09T19:14:14.946Z,48.10
2022-09-09T19:16:42.542Z,49.53
2022-09-09T19:19:14.398Z,49.15
2022-09-09T19:21:42.562Z,55.25
2022-09-09T19:24:13.756Z,50.42
2022-09-09T19:26:47.480Z,49.60
2022-09-09T19:29:21.191Z,52.42
2022-09-09T19:32:14.982Z,49.45
2022-09-09T19:34:36.665Z,48.60
2022-09-09T19:37:04.148Z,50.35
2022-09-09T19:39:33.935Z,57.83
2022-09-09T19:42:01.489Z,51.22
2022-09-09T19:44:28.770Z,58.20
2022-09-09T19:46:55.932Z,49.58
2022-09-09T19:49:23.270Z,52.33
2022-09-09T19:51:50.783Z,54.03
2022-09-09T19:54:17.999Z,52.30
2022-09-09T19:56:45.341Z,49.35
2022-09-09T19:59:15.705Z,49.55
2022-09-09T20:01:44.946Z,47.75
2022-09-09T20:04:14.102Z,47.67
2022-09-09T20:06:44.241Z,50.90
2022-09-09T20:09:17.442Z,46.67
2022-09-09T20:11:46.507Z,48.17
2022-09-09T20:14:14.921Z,48.40
2022-09-09T20:16:42.969Z,49.22
2022-09-09T20:19:12.739Z,46.05
2022-09-09T20:21:50.428Z,43.80
2022-09-09T20:24:19.983Z,44.47
2022-09-09T20:26:48.345Z,43.40
2022-09-09T20:29:19.335Z,44.80
2022-09-09T20:31:47.026Z,38.80
2022-09-09T20:34:19.410Z,40.50
2022-09-09T20:36:47.264Z,43.25
2022-09-09T20:39:17.588Z,44.17
2022-09-09T20:41:46.440Z,42.63
2022-09-09T20:44:16.898Z,43.63
2022-09-09T20:49:18.044Z,44.25
2022-09-09T20:51:46.632Z,39.85
2022-09-09T20:54:19.938Z,42.67
2022-09-09T20:56:48.381Z,45.42
2022-09-09T20:59:20.199Z,41.28
2022-09-09T21:01:47.990Z,46.17
2022-09-09T21:04:17.629Z,47.67
2022-09-09T21:06:45.654Z,45.20
2022-09-09T21:09:14.362Z,46.70
2022-09-09T21:11:42.453Z,48.63
2022-09-09T21:14:09.935Z,44.15
2022-09-09T21:16:37.030Z,41.90
2022-09-09T21:19:04.665Z,42.28
2022-09-09T21:21:31.851Z,44.33
2022-09-09T21:24:00.702Z,47.60
2022-09-09T21:26:28.649Z,50.20
2022-09-09T21:28:56.403Z,50.25
2022-09-09T21:31:27.861Z,44.95
2022-09-09T21:33:57.117Z,46.10
2022-09-09T21:36:24.940Z,49.85
2022-09-09T21:38:52.051Z,45.75
2022-09-09T21:41:19.816Z,51.03
2022-09-09T21:43:51.578Z,52.40
2022-09-09T21:46:18.727Z,51.03
2022-09-09T21:48:46.101Z,48.08
2022-09-09T21:51:16.069Z,47.35
2022-09-09T21:53:43.969Z,47.75
2022-09-09T21:56:16.770Z,46.63
2022-09-09T21:58:43.809Z,48.08
2022-09-09T22:01:16.770Z,50.05
2022-09-09T22:03:45.049Z,52.20
2022-09-09T22:06:15.299Z,48.70
2022-09-09T22:08:42.973Z,51.53
2022-09-09T22:11:22.492Z,53.92
2022-09-09T22:13:50.427Z,54.50
2022-09-09T22:16:20.133Z,50.15
2022-09-09T22:18:59.316Z,53.45
2022-09-09T22:21:29.507Z,55.60
2022-09-09T22:24:01.830Z,54.20
2022-09-09T22:26:32.382Z,54.42
2022-09-09T22:28:59.595Z,62.28
2022-09-09T22:31:28.346Z,58.72
2022-09-09T22:33:55.973Z,56.75
2022-09-09T22:36:24.295Z,56.92
2022-09-09T22:38:52.057Z,55.72
2022-09-09T22:41:19.762Z,55.15
2022-09-09T22:43:47.089Z,60.88
2022-09-09T22:46:14.983Z,67.95
2022-09-09T22:48:42.584Z,62.42
2022-09-09T22:51:14.425Z,67.82
2022-09-09T22:53:42.837Z,58.35
2022-09-09T22:56:17.376Z,57.42
2022-09-09T22:58:46.436Z,64.75
2022-09-09T23:01:17.507Z,57.85
2022-09-09T23:03:46.452Z,67.57
2022-09-09T23:06:20.425Z,61.00
2022-09-09T23:08:50.132Z,65.80
2022-09-09T23:11:17.736Z,65.53
2022-09-09T23:13:53.677Z,58.13
2022-09-09T23:16:24.788Z,67.03
2022-09-09T23:18:52.976Z,65.93
2022-09-09T23:21:20.447Z,69.00
2022-09-09T23:23:47.678Z,71.25
2022-09-09T23:26:21.207Z,62.28
2022-09-09T23:28:50.319Z,62.10
2022-09-09T23:31:20.752Z,68.70
2022-09-09T23:36:17.663Z,65.68
2022-09-09T23:38:45.172Z,64.72
2022-09-09T23:41:15.152Z,64.95
2022-09-09T23:43:44.655Z,62.60
2022-09-09T23:46:14.121Z,71.17
2022-09-09T23:48:42.342Z,68.07
2022-09-09T23:51:17.639Z,62.58
2022-09-09T23:53:49.065Z,64.55
2022-09-09T23:56:16.106Z,62.30
2022-09-09T23:58:43.274Z,63.17
